AIQ880 YBAS-YPAD
Flight info
| Callsign | AIQ880 |
|---|---|
| Flight time | 2h 37m |
| Altitude | 21000 |
| Route | AS J251 WHA H84 AD |
| Aircraft | PC12/L-SDFGRWY/S |
Departure
| Time | 2026-05-06 14:30 |
|---|---|
| Airport | Alice Springs Airport (YBAS) |
Arrival
| Time | 2026-05-06 17:07 |
|---|---|
| Airport | Adelaide International Airport (YPAD) |
| Time | Latitude | Longitude | Altitude | Speed | Heading |
|---|---|---|---|---|---|
| 2026-05-06 14:21 | -23.80062 | 133.89898 | 1780 ft | 0 kts | 109° |
| 2026-05-06 14:26 | -23.80104 | 133.89878 | 1780 ft | 12 kts | 221° |
| 2026-05-06 14:26 | -23.80153 | 133.89818 | 1780 ft | 12 kts | 235° |
| 2026-05-06 14:26 | -23.80120 | 133.89723 | 1780 ft | 18 kts | 296° |
| 2026-05-06 14:26 | -23.80070 | 133.89633 | 1781 ft | 16 kts | 297° |
| 2026-05-06 14:27 | -23.80009 | 133.89525 | 1781 ft | 13 kts | 298° |
| 2026-05-06 14:27 | -23.79984 | 133.89415 | 1782 ft | 13 kts | 256° |
| 2026-05-06 14:27 | -23.80001 | 133.89375 | 1782 ft | 0 kts | 233° |
| 2026-05-06 14:28 | -23.80005 | 133.89368 | 1782 ft | 5 kts | 235° |
| 2026-05-06 14:29 | -23.80042 | 133.89298 | 1781 ft | 8 kts | 238° |
| 2026-05-06 14:29 | -23.80088 | 133.89313 | 1781 ft | 14 kts | 114° |
| 2026-05-06 14:29 | -23.80157 | 133.89445 | 1779 ft | 34 kts | 122° |
| 2026-05-06 14:29 | -23.80366 | 133.89831 | 1779 ft | 83 kts | 120° |
| 2026-05-06 14:30 | -23.80717 | 133.90489 | 1844 ft | 111 kts | 119° |
| 2026-05-06 14:30 | -23.81119 | 133.91266 | 2253 ft | 116 kts | 120° |
| 2026-05-06 14:30 | -23.81548 | 133.92030 | 2687 ft | 123 kts | 129° |
| 2026-05-06 14:30 | -23.82222 | 133.92615 | 3169 ft | 134 kts | 149° |
| 2026-05-06 14:31 | -23.83129 | 133.93030 | 3424 ft | 142 kts | 159° |
| 2026-05-06 14:31 | -23.84095 | 133.93271 | 3482 ft | 147 kts | 166° |
| 2026-05-06 14:31 | -23.85147 | 133.93433 | 3708 ft | 158 kts | 168° |
| 2026-05-06 14:31 | -23.86270 | 133.93559 | 4084 ft | 171 kts | 172° |
| 2026-05-06 14:32 | -23.87565 | 133.93426 | 4278 ft | 192 kts | 185° |
| 2026-05-06 14:32 | -23.88867 | 133.93182 | 4898 ft | 188 kts | 185° |
| 2026-05-06 14:32 | -23.90158 | 133.92943 | 5428 ft | 190 kts | 185° |
| 2026-05-06 14:32 | -23.91471 | 133.92713 | 5939 ft | 191 kts | 185° |
| 2026-05-06 14:33 | -23.92781 | 133.92704 | 6453 ft | 189 kts | 158° |
| 2026-05-06 14:33 | -23.93880 | 133.93451 | 6924 ft | 191 kts | 145° |
| 2026-05-06 14:33 | -23.95049 | 133.94152 | 7392 ft | 193 kts | 156° |
| 2026-05-06 14:33 | -23.96316 | 133.94679 | 7859 ft | 196 kts | 160° |
| 2026-05-06 14:34 | -23.97614 | 133.95182 | 8304 ft | 199 kts | 160° |
| 2026-05-06 14:34 | -23.98922 | 133.95702 | 8765 ft | 202 kts | 160° |
| 2026-05-06 14:34 | -24.00249 | 133.96237 | 9244 ft | 204 kts | 161° |
| 2026-05-06 14:34 | -24.01599 | 133.96781 | 9661 ft | 208 kts | 162° |
| 2026-05-06 14:35 | -24.02962 | 133.97329 | 10137 ft | 212 kts | 162° |
| 2026-05-06 14:35 | -24.04356 | 133.97890 | 10538 ft | 214 kts | 163° |
| 2026-05-06 14:35 | -24.05759 | 133.98455 | 10964 ft | 216 kts | 163° |
| 2026-05-06 14:35 | -24.07186 | 133.99029 | 11326 ft | 221 kts | 163° |
| 2026-05-06 14:36 | -24.08631 | 133.99611 | 11733 ft | 223 kts | 162° |
| 2026-05-06 14:36 | -24.10102 | 134.00203 | 12122 ft | 227 kts | 162° |
| 2026-05-06 14:36 | -24.11586 | 134.00803 | 12506 ft | 229 kts | 163° |
| 2026-05-06 14:36 | -24.13089 | 134.01408 | 12885 ft | 231 kts | 163° |
| 2026-05-06 14:37 | -24.14608 | 134.02019 | 13258 ft | 234 kts | 163° |
| 2026-05-06 14:37 | -24.16145 | 134.02639 | 13625 ft | 237 kts | 162° |
| 2026-05-06 14:37 | -24.17698 | 134.03266 | 13990 ft | 239 kts | 162° |
| 2026-05-06 14:37 | -24.19265 | 134.03898 | 14323 ft | 241 kts | 163° |
| 2026-05-06 14:38 | -24.20840 | 134.04533 | 14644 ft | 242 kts | 163° |
| 2026-05-06 14:38 | -24.22425 | 134.05173 | 14965 ft | 243 kts | 163° |
| 2026-05-06 14:38 | -24.24018 | 134.05817 | 15279 ft | 245 kts | 163° |
| 2026-05-06 14:38 | -24.25623 | 134.06465 | 15583 ft | 247 kts | 163° |
| 2026-05-06 14:39 | -24.27240 | 134.07118 | 15876 ft | 248 kts | 163° |
| 2026-05-06 14:39 | -24.28860 | 134.07772 | 16249 ft | 244 kts | 164° |
| 2026-05-06 14:39 | -24.30370 | 134.08390 | 17165 ft | 218 kts | 165° |
| 2026-05-06 14:39 | -24.31711 | 134.08938 | 18138 ft | 195 kts | 166° |
| 2026-05-06 14:40 | -24.32984 | 134.09449 | 18672 ft | 197 kts | 166° |
| 2026-05-06 14:40 | -24.34277 | 134.09965 | 19114 ft | 198 kts | 166° |
| 2026-05-06 14:40 | -24.35576 | 134.10491 | 19554 ft | 200 kts | 166° |
| 2026-05-06 14:40 | -24.36886 | 134.11021 | 19996 ft | 201 kts | 166° |
| 2026-05-06 14:41 | -24.38206 | 134.11555 | 20438 ft | 203 kts | 167° |
| 2026-05-06 14:41 | -24.39540 | 134.12094 | 20867 ft | 205 kts | 167° |
| 2026-05-06 14:41 | -24.40893 | 134.12642 | 21232 ft | 212 kts | 167° |
| 2026-05-06 14:41 | -24.42341 | 134.13220 | 21319 ft | 233 kts | 167° |
| 2026-05-06 14:42 | -24.43936 | 134.13861 | 21321 ft | 254 kts | 166° |
| 2026-05-06 14:42 | -24.45644 | 134.14557 | 21321 ft | 269 kts | 165° |
| 2026-05-06 14:42 | -24.47430 | 134.15286 | 21315 ft | 279 kts | 165° |
| 2026-05-06 14:42 | -24.49274 | 134.16035 | 21316 ft | 285 kts | 165° |
| 2026-05-06 14:43 | -24.51150 | 134.16796 | 21315 ft | 289 kts | 165° |
| 2026-05-06 14:43 | -24.53050 | 134.17567 | 21312 ft | 292 kts | 165° |
| 2026-05-06 14:43 | -24.54958 | 134.18342 | 21315 ft | 293 kts | 165° |
| 2026-05-06 14:43 | -24.56875 | 134.19120 | 21318 ft | 294 kts | 165° |
| 2026-05-06 14:44 | -24.58797 | 134.19901 | 21316 ft | 295 kts | 165° |
| 2026-05-06 14:44 | -24.60719 | 134.20682 | 21317 ft | 295 kts | 165° |
| 2026-05-06 14:44 | -24.62644 | 134.21464 | 21316 ft | 295 kts | 165° |
| 2026-05-06 14:45 | -24.66469 | 134.23019 | 21307 ft | 295 kts | 164° |
| 2026-05-06 14:45 | -24.68396 | 134.23803 | 21306 ft | 295 kts | 164° |
| 2026-05-06 14:45 | -24.70322 | 134.24587 | 21309 ft | 295 kts | 164° |
| 2026-05-06 14:45 | -24.72250 | 134.25371 | 21311 ft | 295 kts | 164° |
| 2026-05-06 14:46 | -24.74178 | 134.26157 | 21310 ft | 295 kts | 164° |
| 2026-05-06 14:46 | -24.76105 | 134.26941 | 21308 ft | 295 kts | 164° |
| 2026-05-06 14:46 | -24.78034 | 134.27727 | 21311 ft | 295 kts | 164° |
| 2026-05-06 14:46 | -24.79961 | 134.28513 | 21314 ft | 295 kts | 164° |
| 2026-05-06 14:47 | -24.81888 | 134.29299 | 21313 ft | 295 kts | 164° |
| 2026-05-06 14:47 | -24.83817 | 134.30085 | 21324 ft | 295 kts | 164° |
| 2026-05-06 14:47 | -24.85745 | 134.30871 | 21318 ft | 295 kts | 164° |
| 2026-05-06 14:47 | -24.87668 | 134.31657 | 21319 ft | 295 kts | 164° |
| 2026-05-06 14:48 | -24.89593 | 134.32443 | 21319 ft | 295 kts | 164° |
| 2026-05-06 14:48 | -24.91515 | 134.33228 | 21319 ft | 295 kts | 164° |
| 2026-05-06 14:48 | -24.93437 | 134.34013 | 21317 ft | 294 kts | 164° |
| 2026-05-06 14:48 | -24.95359 | 134.34798 | 21323 ft | 295 kts | 164° |
| 2026-05-06 14:49 | -24.97130 | 134.35522 | 21319 ft | 294 kts | 164° |
| 2026-05-06 14:49 | -24.98983 | 134.36280 | 21319 ft | 294 kts | 164° |
| 2026-05-06 14:49 | -25.00906 | 134.37067 | 21323 ft | 295 kts | 164° |
| 2026-05-06 14:49 | -25.02825 | 134.37852 | 21318 ft | 295 kts | 164° |
| 2026-05-06 14:50 | -25.04746 | 134.38638 | 21317 ft | 294 kts | 163° |
| 2026-05-06 14:50 | -25.06667 | 134.39427 | 21313 ft | 294 kts | 163° |
| 2026-05-06 14:50 | -25.08582 | 134.40214 | 21313 ft | 294 kts | 163° |
| 2026-05-06 14:50 | -25.09852 | 134.40736 | 21314 ft | 294 kts | 163° |
| 2026-05-06 14:51 | -25.11768 | 134.41522 | 21315 ft | 294 kts | 163° |
| 2026-05-06 14:51 | -25.13685 | 134.42311 | 21317 ft | 294 kts | 163° |
| 2026-05-06 14:51 | -25.16225 | 134.43354 | 21317 ft | 294 kts | 163° |
| 2026-05-06 14:51 | -25.17521 | 134.43887 | 21316 ft | 294 kts | 163° |
| 2026-05-06 14:52 | -25.19440 | 134.44677 | 21317 ft | 295 kts | 163° |
| 2026-05-06 14:52 | -25.21360 | 134.45467 | 21320 ft | 295 kts | 163° |
| 2026-05-06 14:52 | -25.23279 | 134.46257 | 21313 ft | 295 kts | 163° |
| 2026-05-06 14:52 | -25.25203 | 134.47049 | 21318 ft | 295 kts | 163° |
| 2026-05-06 14:53 | -25.27124 | 134.47840 | 21316 ft | 295 kts | 163° |
| 2026-05-06 14:53 | -25.29045 | 134.48632 | 21316 ft | 295 kts | 163° |
| 2026-05-06 14:53 | -25.30964 | 134.49423 | 21316 ft | 295 kts | 163° |
| 2026-05-06 14:53 | -25.32886 | 134.50215 | 21316 ft | 294 kts | 163° |
| 2026-05-06 14:54 | -25.34779 | 134.50996 | 21318 ft | 294 kts | 163° |
| 2026-05-06 14:54 | -25.36722 | 134.51798 | 21315 ft | 294 kts | 163° |
| 2026-05-06 14:54 | -25.38616 | 134.52579 | 21317 ft | 294 kts | 163° |
| 2026-05-06 14:54 | -25.40562 | 134.53383 | 21317 ft | 294 kts | 163° |
| 2026-05-06 14:55 | -25.42454 | 134.54164 | 21318 ft | 295 kts | 163° |
| 2026-05-06 14:55 | -25.44395 | 134.54966 | 21318 ft | 294 kts | 163° |
| 2026-05-06 14:55 | -25.46229 | 134.55724 | 21318 ft | 294 kts | 163° |
| 2026-05-06 14:55 | -25.48149 | 134.56518 | 21316 ft | 294 kts | 163° |
| 2026-05-06 14:56 | -25.50063 | 134.57310 | 21316 ft | 294 kts | 163° |
| 2026-05-06 14:56 | -25.51981 | 134.58103 | 21317 ft | 294 kts | 163° |
| 2026-05-06 14:56 | -25.53897 | 134.58896 | 21314 ft | 294 kts | 163° |
| 2026-05-06 14:56 | -25.55817 | 134.59691 | 21315 ft | 294 kts | 163° |
| 2026-05-06 14:57 | -25.57734 | 134.60485 | 21317 ft | 294 kts | 163° |
| 2026-05-06 14:57 | -25.59651 | 134.61279 | 21317 ft | 294 kts | 163° |
| 2026-05-06 14:57 | -25.61568 | 134.62074 | 21317 ft | 294 kts | 163° |
| 2026-05-06 14:57 | -25.63485 | 134.62868 | 21319 ft | 294 kts | 163° |
| 2026-05-06 14:58 | -25.65401 | 134.63663 | 21323 ft | 294 kts | 163° |
| 2026-05-06 14:58 | -25.67320 | 134.64459 | 21323 ft | 294 kts | 163° |
| 2026-05-06 14:58 | -25.69238 | 134.65255 | 21323 ft | 294 kts | 163° |
| 2026-05-06 14:58 | -25.71156 | 134.66051 | 21324 ft | 294 kts | 163° |
| 2026-05-06 14:59 | -25.73074 | 134.66848 | 21327 ft | 294 kts | 163° |
| 2026-05-06 14:59 | -25.74993 | 134.67645 | 21316 ft | 295 kts | 163° |
| 2026-05-06 14:59 | -25.76914 | 134.68444 | 21315 ft | 294 kts | 163° |
| 2026-05-06 14:59 | -25.78830 | 134.69240 | 21315 ft | 294 kts | 163° |
| 2026-05-06 15:00 | -25.80746 | 134.70037 | 21321 ft | 294 kts | 163° |
| 2026-05-06 15:00 | -25.82663 | 134.70834 | 21321 ft | 294 kts | 163° |
| 2026-05-06 15:00 | -25.84578 | 134.71631 | 21321 ft | 294 kts | 163° |
| 2026-05-06 15:00 | -25.86497 | 134.72430 | 21321 ft | 294 kts | 163° |
| 2026-05-06 15:01 | -25.88411 | 134.73227 | 21318 ft | 294 kts | 163° |
| 2026-05-06 15:01 | -25.90327 | 134.74025 | 21317 ft | 294 kts | 163° |
| 2026-05-06 15:01 | -25.92239 | 134.74822 | 21319 ft | 294 kts | 163° |
| 2026-05-06 15:01 | -25.94153 | 134.75620 | 21320 ft | 294 kts | 163° |
| 2026-05-06 15:02 | -25.96067 | 134.76418 | 21318 ft | 294 kts | 163° |
| 2026-05-06 15:02 | -25.97983 | 134.77217 | 21319 ft | 294 kts | 163° |
| 2026-05-06 15:02 | -25.99894 | 134.78014 | 21323 ft | 294 kts | 162° |
| 2026-05-06 15:02 | -26.01809 | 134.78815 | 21323 ft | 294 kts | 162° |
| 2026-05-06 15:03 | -26.03721 | 134.79613 | 21325 ft | 293 kts | 162° |
| 2026-05-06 15:03 | -26.05632 | 134.80411 | 21324 ft | 293 kts | 162° |
| 2026-05-06 15:03 | -26.07516 | 134.81198 | 21325 ft | 293 kts | 162° |
| 2026-05-06 15:03 | -26.09451 | 134.82007 | 21324 ft | 293 kts | 162° |
| 2026-05-06 15:04 | -26.11361 | 134.82806 | 21328 ft | 293 kts | 162° |
| 2026-05-06 15:04 | -26.13248 | 134.83595 | 21328 ft | 293 kts | 162° |
| 2026-05-06 15:04 | -26.15184 | 134.84405 | 21329 ft | 293 kts | 162° |
| 2026-05-06 15:04 | -26.17095 | 134.85206 | 21323 ft | 293 kts | 162° |
| 2026-05-06 15:05 | -26.18981 | 134.85995 | 21328 ft | 294 kts | 162° |
| 2026-05-06 15:05 | -26.20918 | 134.86807 | 21328 ft | 293 kts | 162° |
| 2026-05-06 15:05 | -26.22804 | 134.87597 | 21329 ft | 293 kts | 162° |
| 2026-05-06 15:05 | -26.24738 | 134.88408 | 21329 ft | 293 kts | 162° |
| 2026-05-06 15:06 | -26.26622 | 134.89198 | 21326 ft | 293 kts | 162° |
| 2026-05-06 15:06 | -26.28531 | 134.89999 | 21326 ft | 293 kts | 162° |
| 2026-05-06 15:06 | -26.30465 | 134.90811 | 21325 ft | 293 kts | 162° |
| 2026-05-06 15:06 | -26.32348 | 134.91601 | 21329 ft | 293 kts | 162° |
| 2026-05-06 15:07 | -26.34257 | 134.92403 | 21328 ft | 293 kts | 162° |
| 2026-05-06 15:07 | -26.36167 | 134.93205 | 21332 ft | 293 kts | 162° |
| 2026-05-06 15:07 | -26.38076 | 134.94007 | 21326 ft | 293 kts | 162° |
| 2026-05-06 15:07 | -26.39986 | 134.94810 | 21329 ft | 293 kts | 162° |
| 2026-05-06 15:08 | -26.41896 | 134.95613 | 21330 ft | 293 kts | 162° |
| 2026-05-06 15:08 | -26.43802 | 134.96415 | 21330 ft | 293 kts | 162° |
| 2026-05-06 15:08 | -26.45711 | 134.97219 | 21329 ft | 293 kts | 162° |
| 2026-05-06 15:08 | -26.47621 | 134.98023 | 21330 ft | 293 kts | 162° |
| 2026-05-06 15:09 | -26.49528 | 134.98826 | 21329 ft | 293 kts | 162° |
| 2026-05-06 15:09 | -26.51437 | 134.99630 | 21328 ft | 293 kts | 162° |
| 2026-05-06 15:09 | -26.53347 | 135.00435 | 21326 ft | 293 kts | 162° |
| 2026-05-06 15:09 | -26.55256 | 135.01240 | 21325 ft | 293 kts | 162° |
| 2026-05-06 15:10 | -26.57166 | 135.02045 | 21330 ft | 293 kts | 162° |
| 2026-05-06 15:10 | -26.59075 | 135.02851 | 21330 ft | 293 kts | 162° |
| 2026-05-06 15:10 | -26.60983 | 135.03656 | 21330 ft | 293 kts | 162° |
| 2026-05-06 15:10 | -26.62893 | 135.04462 | 21329 ft | 293 kts | 162° |
| 2026-05-06 15:11 | -26.64801 | 135.05269 | 21328 ft | 293 kts | 162° |
| 2026-05-06 15:11 | -26.66714 | 135.06076 | 21328 ft | 294 kts | 162° |
| 2026-05-06 15:11 | -26.68622 | 135.06883 | 21329 ft | 294 kts | 162° |
| 2026-05-06 15:11 | -26.70535 | 135.07692 | 21329 ft | 294 kts | 162° |
| 2026-05-06 15:12 | -26.72445 | 135.08500 | 21329 ft | 294 kts | 162° |
| 2026-05-06 15:12 | -26.74354 | 135.09308 | 21329 ft | 294 kts | 162° |
| 2026-05-06 15:12 | -26.76266 | 135.10117 | 21330 ft | 293 kts | 162° |
| 2026-05-06 15:12 | -26.78174 | 135.10925 | 21333 ft | 293 kts | 162° |
| 2026-05-06 15:13 | -26.80085 | 135.11734 | 21332 ft | 293 kts | 162° |
| 2026-05-06 15:13 | -26.81995 | 135.12543 | 21334 ft | 294 kts | 162° |
| 2026-05-06 15:13 | -26.83907 | 135.13354 | 21331 ft | 294 kts | 162° |
| 2026-05-06 15:13 | -26.85819 | 135.14164 | 21327 ft | 294 kts | 162° |
| 2026-05-06 15:14 | -26.87704 | 135.14964 | 21325 ft | 294 kts | 162° |
| 2026-05-06 15:14 | -26.89612 | 135.15774 | 21331 ft | 294 kts | 162° |
| 2026-05-06 15:14 | -26.91523 | 135.16585 | 21324 ft | 294 kts | 162° |
| 2026-05-06 15:14 | -26.93434 | 135.17397 | 21331 ft | 294 kts | 162° |
| 2026-05-06 15:15 | -26.95345 | 135.18217 | 21328 ft | 294 kts | 162° |
| 2026-05-06 15:15 | -26.97253 | 135.19039 | 21331 ft | 294 kts | 162° |
| 2026-05-06 15:15 | -26.99160 | 135.19857 | 21326 ft | 294 kts | 162° |
| 2026-05-06 15:15 | -27.01070 | 135.20677 | 21327 ft | 294 kts | 162° |
| 2026-05-06 15:16 | -27.02978 | 135.21495 | 21331 ft | 294 kts | 162° |
| 2026-05-06 15:16 | -27.04889 | 135.22317 | 21331 ft | 294 kts | 162° |
| 2026-05-06 15:16 | -27.06798 | 135.23138 | 21328 ft | 294 kts | 162° |
| 2026-05-06 15:16 | -27.08709 | 135.23959 | 21331 ft | 294 kts | 162° |
| 2026-05-06 15:17 | -27.10619 | 135.24781 | 21335 ft | 294 kts | 162° |
| 2026-05-06 15:17 | -27.12529 | 135.25602 | 21332 ft | 294 kts | 162° |
| 2026-05-06 15:17 | -27.14440 | 135.26425 | 21333 ft | 294 kts | 162° |
| 2026-05-06 15:17 | -27.16350 | 135.27247 | 21329 ft | 294 kts | 162° |
| 2026-05-06 15:18 | -27.18262 | 135.28071 | 21335 ft | 294 kts | 162° |
| 2026-05-06 15:18 | -27.20172 | 135.28894 | 21335 ft | 294 kts | 162° |
| 2026-05-06 15:18 | -27.22082 | 135.29717 | 21332 ft | 294 kts | 162° |
| 2026-05-06 15:18 | -27.23992 | 135.30541 | 21335 ft | 294 kts | 162° |
| 2026-05-06 15:19 | -27.25904 | 135.31366 | 21335 ft | 294 kts | 162° |
| 2026-05-06 15:19 | -27.27816 | 135.32191 | 21335 ft | 294 kts | 162° |
| 2026-05-06 15:19 | -27.29726 | 135.33015 | 21338 ft | 294 kts | 162° |
| 2026-05-06 15:19 | -27.31636 | 135.33840 | 21336 ft | 294 kts | 162° |
| 2026-05-06 15:20 | -27.33543 | 135.34664 | 21330 ft | 294 kts | 162° |
| 2026-05-06 15:20 | -27.35455 | 135.35490 | 21336 ft | 294 kts | 162° |
| 2026-05-06 15:20 | -27.37362 | 135.36315 | 21337 ft | 294 kts | 162° |
| 2026-05-06 15:20 | -27.39274 | 135.37142 | 21336 ft | 294 kts | 162° |
| 2026-05-06 15:21 | -27.41182 | 135.37967 | 21330 ft | 294 kts | 162° |
| 2026-05-06 15:21 | -27.43091 | 135.38794 | 21334 ft | 294 kts | 162° |
| 2026-05-06 15:21 | -27.45001 | 135.39621 | 21332 ft | 294 kts | 162° |
| 2026-05-06 15:21 | -27.46909 | 135.40447 | 21338 ft | 294 kts | 162° |
| 2026-05-06 15:22 | -27.48817 | 135.41274 | 21337 ft | 294 kts | 162° |
| 2026-05-06 15:22 | -27.50700 | 135.42090 | 21337 ft | 294 kts | 162° |
| 2026-05-06 15:22 | -27.52608 | 135.42917 | 21337 ft | 294 kts | 162° |
| 2026-05-06 15:22 | -27.54515 | 135.43745 | 21337 ft | 294 kts | 162° |
| 2026-05-06 15:23 | -27.56435 | 135.44520 | 21334 ft | 292 kts | 165° |
| 2026-05-06 15:23 | -27.58373 | 135.45220 | 21334 ft | 293 kts | 166° |
| 2026-05-06 15:23 | -27.60310 | 135.45927 | 21327 ft | 293 kts | 166° |
| 2026-05-06 15:23 | -27.62244 | 135.46639 | 21335 ft | 293 kts | 165° |
| 2026-05-06 15:24 | -27.64181 | 135.47351 | 21337 ft | 293 kts | 166° |
| 2026-05-06 15:24 | -27.66117 | 135.48060 | 21338 ft | 293 kts | 166° |
| 2026-05-06 15:24 | -27.68052 | 135.48770 | 21337 ft | 292 kts | 166° |
| 2026-05-06 15:24 | -27.69985 | 135.49480 | 21338 ft | 292 kts | 166° |
| 2026-05-06 15:25 | -27.71921 | 135.50191 | 21335 ft | 293 kts | 166° |
| 2026-05-06 15:25 | -27.73857 | 135.50902 | 21335 ft | 293 kts | 166° |
| 2026-05-06 15:25 | -27.75794 | 135.51614 | 21332 ft | 293 kts | 166° |
| 2026-05-06 15:25 | -27.77728 | 135.52325 | 21335 ft | 293 kts | 166° |
| 2026-05-06 15:26 | -27.79666 | 135.53037 | 21338 ft | 293 kts | 166° |
| 2026-05-06 15:26 | -27.81599 | 135.53749 | 21338 ft | 293 kts | 166° |
| 2026-05-06 15:26 | -27.83534 | 135.54461 | 21338 ft | 292 kts | 166° |
| 2026-05-06 15:26 | -27.85470 | 135.55174 | 21336 ft | 293 kts | 166° |
| 2026-05-06 15:27 | -27.87406 | 135.55887 | 21334 ft | 292 kts | 166° |
| 2026-05-06 15:27 | -27.89338 | 135.56598 | 21337 ft | 292 kts | 166° |
| 2026-05-06 15:27 | -27.91271 | 135.57311 | 21337 ft | 292 kts | 166° |
| 2026-05-06 15:27 | -27.93201 | 135.58023 | 21340 ft | 292 kts | 166° |
| 2026-05-06 15:28 | -27.95133 | 135.58736 | 21338 ft | 292 kts | 166° |
| 2026-05-06 15:28 | -27.97065 | 135.59448 | 21338 ft | 292 kts | 166° |
| 2026-05-06 15:28 | -27.98995 | 135.60161 | 21334 ft | 292 kts | 166° |
| 2026-05-06 15:28 | -28.00926 | 135.60874 | 21338 ft | 292 kts | 166° |
| 2026-05-06 15:29 | -28.02857 | 135.61587 | 21338 ft | 292 kts | 166° |
| 2026-05-06 15:29 | -28.04788 | 135.62301 | 21338 ft | 292 kts | 166° |
| 2026-05-06 15:29 | -28.06718 | 135.63014 | 21338 ft | 292 kts | 166° |
| 2026-05-06 15:29 | -28.08650 | 135.63729 | 21339 ft | 292 kts | 166° |
| 2026-05-06 15:30 | -28.10581 | 135.64443 | 21335 ft | 292 kts | 166° |
| 2026-05-06 15:30 | -28.12512 | 135.65158 | 21336 ft | 292 kts | 166° |
| 2026-05-06 15:30 | -28.14438 | 135.65871 | 21337 ft | 291 kts | 165° |
| 2026-05-06 15:30 | -28.16364 | 135.66585 | 21336 ft | 291 kts | 165° |
| 2026-05-06 15:31 | -28.18291 | 135.67298 | 21335 ft | 291 kts | 166° |
| 2026-05-06 15:31 | -28.20215 | 135.68012 | 21335 ft | 291 kts | 165° |
| 2026-05-06 15:31 | -28.22140 | 135.68725 | 21335 ft | 291 kts | 166° |
| 2026-05-06 15:32 | -28.25989 | 135.70154 | 21332 ft | 291 kts | 165° |
| 2026-05-06 15:32 | -28.27911 | 135.70867 | 21332 ft | 291 kts | 165° |
| 2026-05-06 15:32 | -28.29837 | 135.71582 | 21335 ft | 291 kts | 165° |
| 2026-05-06 15:32 | -28.31760 | 135.72297 | 21335 ft | 291 kts | 165° |
| 2026-05-06 15:33 | -28.33685 | 135.73012 | 21330 ft | 291 kts | 165° |
| 2026-05-06 15:33 | -28.35608 | 135.73727 | 21334 ft | 291 kts | 165° |
| 2026-05-06 15:33 | -28.37532 | 135.74443 | 21334 ft | 291 kts | 165° |
| 2026-05-06 15:33 | -28.39427 | 135.75148 | 21334 ft | 290 kts | 165° |
| 2026-05-06 15:34 | -28.41372 | 135.75872 | 21339 ft | 290 kts | 165° |
| 2026-05-06 15:34 | -28.43264 | 135.76577 | 21340 ft | 290 kts | 165° |
| 2026-05-06 15:34 | -28.45185 | 135.77292 | 21340 ft | 290 kts | 165° |
| 2026-05-06 15:34 | -28.47102 | 135.78007 | 21339 ft | 290 kts | 165° |
| 2026-05-06 15:35 | -28.49022 | 135.78723 | 21338 ft | 290 kts | 165° |
| 2026-05-06 15:35 | -28.50942 | 135.79439 | 21339 ft | 290 kts | 165° |
| 2026-05-06 15:35 | -28.52862 | 135.80155 | 21339 ft | 290 kts | 165° |
| 2026-05-06 15:35 | -28.54780 | 135.80871 | 21339 ft | 290 kts | 165° |
| 2026-05-06 15:36 | -28.56701 | 135.81588 | 21336 ft | 290 kts | 165° |
| 2026-05-06 15:36 | -28.58619 | 135.82305 | 21336 ft | 290 kts | 165° |
| 2026-05-06 15:36 | -28.60538 | 135.83021 | 21338 ft | 290 kts | 165° |
| 2026-05-06 15:36 | -28.62454 | 135.83738 | 21339 ft | 290 kts | 165° |
| 2026-05-06 15:37 | -28.64368 | 135.84454 | 21339 ft | 290 kts | 165° |
| 2026-05-06 15:37 | -28.66286 | 135.85171 | 21340 ft | 290 kts | 165° |
| 2026-05-06 15:37 | -28.68199 | 135.85887 | 21338 ft | 290 kts | 165° |
| 2026-05-06 15:37 | -28.70065 | 135.86586 | 21337 ft | 290 kts | 165° |
| 2026-05-06 15:38 | -28.71687 | 135.87193 | 21333 ft | 290 kts | 165° |
| 2026-05-06 15:38 | -28.73317 | 135.87804 | 21334 ft | 290 kts | 165° |
| 2026-05-06 15:38 | -28.75311 | 135.88551 | 21333 ft | 289 kts | 165° |
| 2026-05-06 15:38 | -28.76504 | 135.88998 | 21334 ft | 289 kts | 165° |
| 2026-05-06 15:39 | -28.79135 | 135.89985 | 21333 ft | 289 kts | 165° |
| 2026-05-06 15:39 | -28.81046 | 135.90702 | 21336 ft | 289 kts | 165° |
| 2026-05-06 15:39 | -28.82768 | 135.91348 | 21335 ft | 290 kts | 165° |
| 2026-05-06 15:39 | -28.84401 | 135.91962 | 21341 ft | 289 kts | 165° |
| 2026-05-06 15:40 | -28.86245 | 135.92654 | 21336 ft | 289 kts | 165° |
| 2026-05-06 15:40 | -28.88161 | 135.93374 | 21335 ft | 289 kts | 165° |
| 2026-05-06 15:40 | -28.89426 | 135.93850 | 21335 ft | 289 kts | 165° |
| 2026-05-06 15:40 | -28.91334 | 135.94567 | 21336 ft | 289 kts | 165° |
| 2026-05-06 15:41 | -28.93244 | 135.95286 | 21336 ft | 289 kts | 165° |
| 2026-05-06 15:41 | -28.95156 | 135.96005 | 21336 ft | 289 kts | 165° |
| 2026-05-06 15:41 | -28.97066 | 135.96724 | 21335 ft | 289 kts | 165° |
| 2026-05-06 15:41 | -28.98973 | 135.97442 | 21335 ft | 289 kts | 165° |
| 2026-05-06 15:42 | -29.00885 | 135.98163 | 21336 ft | 289 kts | 165° |
| 2026-05-06 15:42 | -29.02795 | 135.98882 | 21336 ft | 289 kts | 165° |
| 2026-05-06 15:42 | -29.04703 | 135.99602 | 21336 ft | 289 kts | 165° |
| 2026-05-06 15:42 | -29.06614 | 136.00322 | 21336 ft | 289 kts | 165° |
| 2026-05-06 15:43 | -29.08524 | 136.01043 | 21336 ft | 289 kts | 165° |
| 2026-05-06 15:43 | -29.10434 | 136.01764 | 21334 ft | 289 kts | 165° |
| 2026-05-06 15:43 | -29.12347 | 136.02486 | 21334 ft | 289 kts | 165° |
| 2026-05-06 15:43 | -29.14259 | 136.03209 | 21334 ft | 289 kts | 165° |
| 2026-05-06 15:44 | -29.16167 | 136.03930 | 21334 ft | 289 kts | 165° |
| 2026-05-06 15:44 | -29.18080 | 136.04653 | 21335 ft | 289 kts | 165° |
| 2026-05-06 15:44 | -29.19990 | 136.05376 | 21334 ft | 289 kts | 165° |
| 2026-05-06 15:44 | -29.21877 | 136.06089 | 21334 ft | 289 kts | 165° |
| 2026-05-06 15:45 | -29.23787 | 136.06813 | 21336 ft | 289 kts | 165° |
| 2026-05-06 15:45 | -29.25696 | 136.07535 | 21336 ft | 289 kts | 165° |
| 2026-05-06 15:45 | -29.27607 | 136.08259 | 21336 ft | 289 kts | 165° |
| 2026-05-06 15:45 | -29.29518 | 136.08983 | 21334 ft | 289 kts | 165° |
| 2026-05-06 15:46 | -29.31428 | 136.09708 | 21334 ft | 289 kts | 165° |
| 2026-05-06 15:46 | -29.33339 | 136.10432 | 21333 ft | 289 kts | 165° |
| 2026-05-06 15:46 | -29.35247 | 136.11156 | 21330 ft | 289 kts | 165° |
| 2026-05-06 15:46 | -29.37159 | 136.11882 | 21330 ft | 289 kts | 165° |
| 2026-05-06 15:47 | -29.39067 | 136.12606 | 21331 ft | 289 kts | 165° |
| 2026-05-06 15:47 | -29.40976 | 136.13331 | 21331 ft | 289 kts | 165° |
| 2026-05-06 15:47 | -29.42884 | 136.14056 | 21331 ft | 289 kts | 165° |
| 2026-05-06 15:47 | -29.44790 | 136.14781 | 21331 ft | 289 kts | 165° |
| 2026-05-06 15:48 | -29.46698 | 136.15506 | 21330 ft | 289 kts | 165° |
| 2026-05-06 15:48 | -29.48607 | 136.16233 | 21331 ft | 289 kts | 165° |
| 2026-05-06 15:48 | -29.50512 | 136.16958 | 21329 ft | 289 kts | 165° |
| 2026-05-06 15:48 | -29.52420 | 136.17684 | 21329 ft | 289 kts | 165° |
| 2026-05-06 15:49 | -29.54326 | 136.18410 | 21331 ft | 289 kts | 165° |
| 2026-05-06 15:49 | -29.56234 | 136.19138 | 21329 ft | 289 kts | 165° |
| 2026-05-06 15:49 | -29.58140 | 136.19864 | 21329 ft | 289 kts | 165° |
| 2026-05-06 15:49 | -29.60047 | 136.20591 | 21331 ft | 289 kts | 165° |
| 2026-05-06 15:50 | -29.61955 | 136.21319 | 21328 ft | 289 kts | 165° |
| 2026-05-06 15:50 | -29.63857 | 136.22045 | 21327 ft | 288 kts | 165° |
| 2026-05-06 15:50 | -29.65762 | 136.22773 | 21328 ft | 288 kts | 165° |
| 2026-05-06 15:50 | -29.67666 | 136.23500 | 21327 ft | 288 kts | 165° |
| 2026-05-06 15:51 | -29.69566 | 136.24226 | 21332 ft | 288 kts | 165° |
| 2026-05-06 15:51 | -29.71469 | 136.24959 | 21329 ft | 288 kts | 165° |
| 2026-05-06 15:51 | -29.73368 | 136.25692 | 21329 ft | 288 kts | 165° |
| 2026-05-06 15:51 | -29.75245 | 136.26416 | 21334 ft | 288 kts | 165° |
| 2026-05-06 15:52 | -29.77173 | 136.27158 | 21327 ft | 288 kts | 165° |
| 2026-05-06 15:52 | -29.79050 | 136.27881 | 21330 ft | 288 kts | 165° |
| 2026-05-06 15:52 | -29.80951 | 136.28615 | 21330 ft | 288 kts | 165° |
| 2026-05-06 15:52 | -29.82877 | 136.29358 | 21330 ft | 288 kts | 165° |
| 2026-05-06 15:53 | -29.84752 | 136.30082 | 21330 ft | 288 kts | 165° |
| 2026-05-06 15:53 | -29.86678 | 136.30826 | 21335 ft | 288 kts | 165° |
| 2026-05-06 15:53 | -29.88553 | 136.31550 | 21329 ft | 288 kts | 165° |
| 2026-05-06 15:53 | -29.90453 | 136.32285 | 21332 ft | 288 kts | 165° |
| 2026-05-06 15:54 | -29.92353 | 136.33019 | 21325 ft | 288 kts | 165° |
| 2026-05-06 15:54 | -29.94254 | 136.33754 | 21332 ft | 288 kts | 165° |
| 2026-05-06 15:54 | -29.96155 | 136.34490 | 21325 ft | 288 kts | 165° |
| 2026-05-06 15:54 | -29.98055 | 136.35225 | 21326 ft | 288 kts | 165° |
| 2026-05-06 15:55 | -29.99956 | 136.35962 | 21329 ft | 288 kts | 165° |
| 2026-05-06 15:55 | -30.01856 | 136.36698 | 21325 ft | 288 kts | 165° |
| 2026-05-06 15:55 | -30.03756 | 136.37434 | 21329 ft | 288 kts | 165° |
| 2026-05-06 15:55 | -30.05659 | 136.38172 | 21331 ft | 288 kts | 165° |
| 2026-05-06 15:56 | -30.07561 | 136.38910 | 21330 ft | 288 kts | 165° |
| 2026-05-06 15:56 | -30.09466 | 136.39649 | 21323 ft | 288 kts | 165° |
| 2026-05-06 15:56 | -30.11365 | 136.40387 | 21323 ft | 288 kts | 165° |
| 2026-05-06 15:56 | -30.13267 | 136.41125 | 21326 ft | 288 kts | 165° |
| 2026-05-06 15:57 | -30.15167 | 136.41864 | 21323 ft | 288 kts | 165° |
| 2026-05-06 15:57 | -30.17070 | 136.42603 | 21323 ft | 288 kts | 165° |
| 2026-05-06 15:57 | -30.18970 | 136.43342 | 21322 ft | 288 kts | 165° |
| 2026-05-06 15:57 | -30.20869 | 136.44080 | 21319 ft | 288 kts | 165° |
| 2026-05-06 15:58 | -30.22772 | 136.44820 | 21314 ft | 288 kts | 165° |
| 2026-05-06 15:58 | -30.24672 | 136.45559 | 21314 ft | 288 kts | 165° |
| 2026-05-06 15:58 | -30.26571 | 136.46302 | 21314 ft | 288 kts | 165° |
| 2026-05-06 15:58 | -30.28471 | 136.47043 | 21314 ft | 288 kts | 165° |
| 2026-05-06 15:59 | -30.30372 | 136.47782 | 21313 ft | 288 kts | 165° |
| 2026-05-06 15:59 | -30.32273 | 136.48523 | 21313 ft | 288 kts | 165° |
| 2026-05-06 15:59 | -30.34171 | 136.49264 | 21318 ft | 288 kts | 165° |
| 2026-05-06 15:59 | -30.36073 | 136.50006 | 21320 ft | 288 kts | 165° |
| 2026-05-06 16:00 | -30.37975 | 136.50748 | 21322 ft | 288 kts | 165° |
| 2026-05-06 16:00 | -30.39874 | 136.51490 | 21323 ft | 288 kts | 165° |
| 2026-05-06 16:00 | -30.41776 | 136.52234 | 21323 ft | 288 kts | 165° |
| 2026-05-06 16:00 | -30.43678 | 136.52977 | 21323 ft | 288 kts | 165° |
| 2026-05-06 16:01 | -30.45578 | 136.53720 | 21321 ft | 288 kts | 165° |
| 2026-05-06 16:01 | -30.47455 | 136.54455 | 21323 ft | 288 kts | 165° |
| 2026-05-06 16:01 | -30.49356 | 136.55199 | 21324 ft | 288 kts | 165° |
| 2026-05-06 16:01 | -30.51258 | 136.55943 | 21324 ft | 288 kts | 165° |
| 2026-05-06 16:02 | -30.53155 | 136.56686 | 21322 ft | 288 kts | 165° |
| 2026-05-06 16:02 | -30.55057 | 136.57432 | 21320 ft | 289 kts | 165° |
| 2026-05-06 16:02 | -30.56961 | 136.58179 | 21320 ft | 289 kts | 165° |
| 2026-05-06 16:02 | -30.58863 | 136.58924 | 21323 ft | 289 kts | 165° |
| 2026-05-06 16:03 | -30.60769 | 136.59672 | 21325 ft | 289 kts | 165° |
| 2026-05-06 16:03 | -30.62671 | 136.60419 | 21325 ft | 289 kts | 165° |
| 2026-05-06 16:03 | -30.64573 | 136.61166 | 21325 ft | 289 kts | 165° |
| 2026-05-06 16:03 | -30.66474 | 136.61913 | 21325 ft | 289 kts | 165° |
| 2026-05-06 16:04 | -30.68377 | 136.62661 | 21325 ft | 289 kts | 165° |
| 2026-05-06 16:04 | -30.70279 | 136.63408 | 21325 ft | 289 kts | 165° |
| 2026-05-06 16:04 | -30.72181 | 136.64157 | 21325 ft | 289 kts | 165° |
| 2026-05-06 16:04 | -30.74081 | 136.64905 | 21324 ft | 289 kts | 165° |
| 2026-05-06 16:05 | -30.75985 | 136.65654 | 21321 ft | 289 kts | 165° |
| 2026-05-06 16:05 | -30.77889 | 136.66404 | 21326 ft | 289 kts | 165° |
| 2026-05-06 16:05 | -30.79789 | 136.67152 | 21324 ft | 289 kts | 165° |
| 2026-05-06 16:05 | -30.81692 | 136.67903 | 21325 ft | 289 kts | 165° |
| 2026-05-06 16:06 | -30.83596 | 136.68653 | 21323 ft | 289 kts | 165° |
| 2026-05-06 16:06 | -30.85499 | 136.69405 | 21323 ft | 289 kts | 165° |
| 2026-05-06 16:06 | -30.87398 | 136.70154 | 21323 ft | 288 kts | 165° |
| 2026-05-06 16:06 | -30.89297 | 136.70904 | 21323 ft | 288 kts | 165° |
| 2026-05-06 16:07 | -30.91200 | 136.71655 | 21321 ft | 288 kts | 165° |
| 2026-05-06 16:07 | -30.93099 | 136.72406 | 21321 ft | 288 kts | 165° |
| 2026-05-06 16:07 | -30.94997 | 136.73156 | 21323 ft | 288 kts | 165° |
| 2026-05-06 16:07 | -30.96897 | 136.73907 | 21323 ft | 288 kts | 165° |
| 2026-05-06 16:08 | -30.98792 | 136.74657 | 21326 ft | 288 kts | 165° |
| 2026-05-06 16:08 | -31.00694 | 136.75410 | 21326 ft | 288 kts | 165° |
| 2026-05-06 16:08 | -31.02594 | 136.76163 | 21327 ft | 288 kts | 165° |
| 2026-05-06 16:08 | -31.04492 | 136.76915 | 21328 ft | 288 kts | 165° |
| 2026-05-06 16:09 | -31.06391 | 136.77667 | 21328 ft | 289 kts | 165° |
| 2026-05-06 16:09 | -31.08293 | 136.78421 | 21328 ft | 289 kts | 165° |
| 2026-05-06 16:09 | -31.10194 | 136.79176 | 21328 ft | 289 kts | 165° |
| 2026-05-06 16:09 | -31.12071 | 136.79921 | 21329 ft | 289 kts | 165° |
| 2026-05-06 16:10 | -31.13973 | 136.80676 | 21329 ft | 289 kts | 165° |
| 2026-05-06 16:10 | -31.15884 | 136.81376 | 21328 ft | 288 kts | 166° |
| 2026-05-06 16:10 | -31.17797 | 136.82079 | 21328 ft | 288 kts | 166° |
| 2026-05-06 16:10 | -31.19704 | 136.82787 | 21328 ft | 288 kts | 166° |
| 2026-05-06 16:11 | -31.21617 | 136.83489 | 21325 ft | 288 kts | 166° |
| 2026-05-06 16:11 | -31.23529 | 136.84187 | 21326 ft | 288 kts | 166° |
| 2026-05-06 16:11 | -31.25444 | 136.84888 | 21326 ft | 288 kts | 166° |
| 2026-05-06 16:11 | -31.27356 | 136.85591 | 21326 ft | 288 kts | 166° |
| 2026-05-06 16:12 | -31.29267 | 136.86293 | 21328 ft | 288 kts | 166° |
| 2026-05-06 16:12 | -31.31179 | 136.86994 | 21326 ft | 288 kts | 166° |
| 2026-05-06 16:12 | -31.33093 | 136.87698 | 21322 ft | 288 kts | 166° |
| 2026-05-06 16:12 | -31.35002 | 136.88399 | 21322 ft | 288 kts | 166° |
| 2026-05-06 16:13 | -31.36912 | 136.89101 | 21325 ft | 287 kts | 166° |
| 2026-05-06 16:13 | -31.38822 | 136.89804 | 21324 ft | 288 kts | 166° |
| 2026-05-06 16:13 | -31.40730 | 136.90505 | 21324 ft | 288 kts | 166° |
| 2026-05-06 16:13 | -31.42641 | 136.91209 | 21324 ft | 288 kts | 166° |
| 2026-05-06 16:14 | -31.44548 | 136.91911 | 21325 ft | 288 kts | 166° |
| 2026-05-06 16:14 | -31.46456 | 136.92614 | 21324 ft | 287 kts | 166° |
| 2026-05-06 16:14 | -31.48364 | 136.93318 | 21324 ft | 288 kts | 166° |
| 2026-05-06 16:14 | -31.50274 | 136.94022 | 21324 ft | 287 kts | 166° |
| 2026-05-06 16:15 | -31.52181 | 136.94725 | 21324 ft | 287 kts | 166° |
| 2026-05-06 16:15 | -31.54087 | 136.95429 | 21325 ft | 287 kts | 166° |
| 2026-05-06 16:15 | -31.55994 | 136.96133 | 21328 ft | 287 kts | 166° |
| 2026-05-06 16:15 | -31.57902 | 136.96838 | 21325 ft | 287 kts | 166° |
| 2026-05-06 16:16 | -31.59809 | 136.97542 | 21328 ft | 287 kts | 166° |
| 2026-05-06 16:16 | -31.61719 | 136.98248 | 21319 ft | 288 kts | 166° |
| 2026-05-06 16:16 | -31.63627 | 136.98954 | 21318 ft | 288 kts | 166° |
| 2026-05-06 16:16 | -31.65533 | 136.99660 | 21318 ft | 288 kts | 166° |
| 2026-05-06 16:17 | -31.67442 | 137.00366 | 21320 ft | 287 kts | 166° |
| 2026-05-06 16:17 | -31.69326 | 137.01064 | 21321 ft | 287 kts | 166° |
| 2026-05-06 16:17 | -31.71232 | 137.01770 | 21321 ft | 287 kts | 166° |
| 2026-05-06 16:17 | -31.73139 | 137.02477 | 21321 ft | 288 kts | 166° |
| 2026-05-06 16:18 | -31.75048 | 137.03185 | 21321 ft | 288 kts | 166° |
| 2026-05-06 16:18 | -31.76956 | 137.03892 | 21326 ft | 288 kts | 166° |
| 2026-05-06 16:18 | -31.78865 | 137.04601 | 21326 ft | 288 kts | 166° |
| 2026-05-06 16:18 | -31.80773 | 137.05309 | 21325 ft | 288 kts | 166° |
| 2026-05-06 16:19 | -31.82682 | 137.06018 | 21324 ft | 288 kts | 166° |
| 2026-05-06 16:19 | -31.84593 | 137.06729 | 21324 ft | 288 kts | 166° |
| 2026-05-06 16:19 | -31.86505 | 137.07439 | 21321 ft | 288 kts | 166° |
| 2026-05-06 16:19 | -31.88414 | 137.08149 | 21322 ft | 288 kts | 166° |
| 2026-05-06 16:20 | -31.90326 | 137.08861 | 21321 ft | 288 kts | 166° |
| 2026-05-06 16:20 | -31.92234 | 137.09571 | 21322 ft | 288 kts | 166° |
| 2026-05-06 16:20 | -31.94145 | 137.10283 | 21321 ft | 288 kts | 166° |
| 2026-05-06 16:20 | -31.96053 | 137.10994 | 21322 ft | 288 kts | 166° |
| 2026-05-06 16:21 | -31.97965 | 137.11706 | 21320 ft | 288 kts | 166° |
| 2026-05-06 16:21 | -31.99873 | 137.12418 | 21319 ft | 288 kts | 166° |
| 2026-05-06 16:21 | -32.01784 | 137.13131 | 21319 ft | 288 kts | 166° |
| 2026-05-06 16:21 | -32.03693 | 137.13843 | 21319 ft | 288 kts | 166° |
| 2026-05-06 16:22 | -32.05602 | 137.14556 | 21318 ft | 288 kts | 166° |
| 2026-05-06 16:22 | -32.07512 | 137.15270 | 21318 ft | 288 kts | 166° |
| 2026-05-06 16:22 | -32.09424 | 137.15984 | 21319 ft | 288 kts | 166° |
| 2026-05-06 16:22 | -32.11332 | 137.16698 | 21318 ft | 288 kts | 166° |
| 2026-05-06 16:23 | -32.13244 | 137.17413 | 21321 ft | 288 kts | 166° |
| 2026-05-06 16:23 | -32.15155 | 137.18128 | 21321 ft | 288 kts | 166° |
| 2026-05-06 16:23 | -32.17064 | 137.18843 | 21321 ft | 288 kts | 166° |
| 2026-05-06 16:23 | -32.18974 | 137.19558 | 21322 ft | 288 kts | 166° |
| 2026-05-06 16:24 | -32.20884 | 137.20274 | 21321 ft | 288 kts | 166° |
| 2026-05-06 16:24 | -32.22796 | 137.20991 | 21321 ft | 288 kts | 166° |
| 2026-05-06 16:24 | -32.24708 | 137.21708 | 21321 ft | 288 kts | 166° |
| 2026-05-06 16:24 | -32.26617 | 137.22424 | 21321 ft | 288 kts | 166° |
| 2026-05-06 16:25 | -32.28527 | 137.23141 | 21318 ft | 288 kts | 166° |
| 2026-05-06 16:25 | -32.30439 | 137.23859 | 21317 ft | 288 kts | 166° |
| 2026-05-06 16:25 | -32.32351 | 137.24577 | 21317 ft | 288 kts | 166° |
| 2026-05-06 16:25 | -32.34260 | 137.25295 | 21317 ft | 288 kts | 166° |
| 2026-05-06 16:26 | -32.36171 | 137.26013 | 21318 ft | 288 kts | 166° |
| 2026-05-06 16:26 | -32.38082 | 137.26732 | 21318 ft | 288 kts | 166° |
| 2026-05-06 16:26 | -32.39995 | 137.27452 | 21317 ft | 288 kts | 166° |
| 2026-05-06 16:26 | -32.41905 | 137.28172 | 21316 ft | 288 kts | 166° |
| 2026-05-06 16:27 | -32.43814 | 137.28891 | 21315 ft | 288 kts | 166° |
| 2026-05-06 16:27 | -32.45723 | 137.29610 | 21315 ft | 288 kts | 166° |
| 2026-05-06 16:27 | -32.47632 | 137.30332 | 21309 ft | 288 kts | 165° |
| 2026-05-06 16:27 | -32.49511 | 137.31173 | 21317 ft | 289 kts | 162° |
| 2026-05-06 16:28 | -32.51387 | 137.32046 | 21311 ft | 290 kts | 162° |
| 2026-05-06 16:28 | -32.53264 | 137.32909 | 21311 ft | 290 kts | 163° |
| 2026-05-06 16:28 | -32.55143 | 137.33769 | 21311 ft | 290 kts | 163° |
| 2026-05-06 16:28 | -32.56387 | 137.34341 | 21312 ft | 290 kts | 163° |
| 2026-05-06 16:29 | -32.58263 | 137.35205 | 21312 ft | 290 kts | 163° |
| 2026-05-06 16:29 | -32.60142 | 137.36070 | 21312 ft | 290 kts | 163° |
| 2026-05-06 16:29 | -32.62020 | 137.36935 | 21312 ft | 290 kts | 163° |
| 2026-05-06 16:29 | -32.63898 | 137.37801 | 21311 ft | 290 kts | 162° |
| 2026-05-06 16:30 | -32.66387 | 137.38948 | 21311 ft | 290 kts | 163° |
| 2026-05-06 16:30 | -32.67021 | 137.39240 | 21311 ft | 290 kts | 163° |
| 2026-05-06 16:30 | -32.69537 | 137.40402 | 21311 ft | 290 kts | 163° |
| 2026-05-06 16:30 | -32.71420 | 137.41271 | 21311 ft | 290 kts | 162° |
| 2026-05-06 16:31 | -32.73302 | 137.42140 | 21311 ft | 290 kts | 162° |
| 2026-05-06 16:31 | -32.75185 | 137.43010 | 21314 ft | 291 kts | 163° |
| 2026-05-06 16:31 | -32.77067 | 137.43880 | 21311 ft | 291 kts | 163° |
| 2026-05-06 16:31 | -32.78952 | 137.44752 | 21311 ft | 290 kts | 163° |
| 2026-05-06 16:32 | -32.80832 | 137.45622 | 21311 ft | 290 kts | 163° |
| 2026-05-06 16:32 | -32.82714 | 137.46494 | 21311 ft | 290 kts | 163° |
| 2026-05-06 16:32 | -32.84597 | 137.47365 | 21311 ft | 290 kts | 163° |
| 2026-05-06 16:32 | -32.86477 | 137.48236 | 21311 ft | 290 kts | 163° |
| 2026-05-06 16:33 | -32.88357 | 137.49108 | 21311 ft | 290 kts | 163° |
| 2026-05-06 16:33 | -32.90235 | 137.49979 | 21311 ft | 290 kts | 163° |
| 2026-05-06 16:33 | -32.92118 | 137.50853 | 21311 ft | 290 kts | 163° |
| 2026-05-06 16:34 | -32.95875 | 137.52597 | 21308 ft | 290 kts | 163° |
| 2026-05-06 16:34 | -32.97753 | 137.53470 | 21308 ft | 290 kts | 163° |
| 2026-05-06 16:34 | -32.99632 | 137.54343 | 21315 ft | 290 kts | 163° |
| 2026-05-06 16:34 | -33.01511 | 137.55216 | 21309 ft | 290 kts | 163° |
| 2026-05-06 16:35 | -33.03390 | 137.56091 | 21309 ft | 290 kts | 163° |
| 2026-05-06 16:35 | -33.05248 | 137.56956 | 21309 ft | 290 kts | 163° |
| 2026-05-06 16:35 | -33.07128 | 137.57832 | 21308 ft | 290 kts | 163° |
| 2026-05-06 16:35 | -33.09009 | 137.58707 | 21309 ft | 290 kts | 163° |
| 2026-05-06 16:36 | -33.10886 | 137.59583 | 21315 ft | 290 kts | 163° |
| 2026-05-06 16:36 | -33.12770 | 137.60461 | 21313 ft | 290 kts | 163° |
| 2026-05-06 16:36 | -33.14652 | 137.61339 | 21313 ft | 291 kts | 163° |
| 2026-05-06 16:36 | -33.16536 | 137.62218 | 21313 ft | 290 kts | 163° |
| 2026-05-06 16:37 | -33.18415 | 137.63096 | 21312 ft | 290 kts | 163° |
| 2026-05-06 16:37 | -33.20299 | 137.63976 | 21314 ft | 290 kts | 163° |
| 2026-05-06 16:37 | -33.22179 | 137.64855 | 21314 ft | 290 kts | 163° |
| 2026-05-06 16:37 | -33.24059 | 137.65734 | 21322 ft | 290 kts | 163° |
| 2026-05-06 16:38 | -33.25940 | 137.66614 | 21310 ft | 290 kts | 163° |
| 2026-05-06 16:38 | -33.27819 | 137.67493 | 21310 ft | 290 kts | 163° |
| 2026-05-06 16:38 | -33.29699 | 137.68374 | 21310 ft | 290 kts | 163° |
| 2026-05-06 16:38 | -33.31575 | 137.69252 | 21310 ft | 290 kts | 163° |
| 2026-05-06 16:39 | -33.33451 | 137.70132 | 21311 ft | 290 kts | 163° |
| 2026-05-06 16:39 | -33.35328 | 137.71012 | 21312 ft | 290 kts | 163° |
| 2026-05-06 16:39 | -33.37204 | 137.71892 | 21308 ft | 290 kts | 163° |
| 2026-05-06 16:39 | -33.39079 | 137.72772 | 21308 ft | 290 kts | 163° |
| 2026-05-06 16:40 | -33.40954 | 137.73653 | 21307 ft | 290 kts | 163° |
| 2026-05-06 16:40 | -33.42829 | 137.74533 | 21306 ft | 290 kts | 163° |
| 2026-05-06 16:40 | -33.44705 | 137.75415 | 21306 ft | 290 kts | 163° |
| 2026-05-06 16:40 | -33.46580 | 137.76297 | 21306 ft | 290 kts | 163° |
| 2026-05-06 16:41 | -33.48456 | 137.77180 | 21317 ft | 290 kts | 163° |
| 2026-05-06 16:41 | -33.50332 | 137.78063 | 21308 ft | 290 kts | 163° |
| 2026-05-06 16:41 | -33.52208 | 137.78945 | 21308 ft | 289 kts | 163° |
| 2026-05-06 16:41 | -33.54077 | 137.79827 | 21308 ft | 289 kts | 163° |
| 2026-05-06 16:42 | -33.55953 | 137.80711 | 21308 ft | 290 kts | 163° |
| 2026-05-06 16:42 | -33.57829 | 137.81595 | 21308 ft | 290 kts | 163° |
| 2026-05-06 16:42 | -33.59705 | 137.82480 | 21306 ft | 290 kts | 163° |
| 2026-05-06 16:42 | -33.61584 | 137.83367 | 21306 ft | 290 kts | 163° |
| 2026-05-06 16:43 | -33.63435 | 137.84241 | 21303 ft | 290 kts | 163° |
| 2026-05-06 16:43 | -33.65315 | 137.85129 | 21304 ft | 290 kts | 163° |
| 2026-05-06 16:43 | -33.67216 | 137.86028 | 21304 ft | 290 kts | 163° |
| 2026-05-06 16:43 | -33.69071 | 137.86905 | 21304 ft | 290 kts | 163° |
| 2026-05-06 16:44 | -33.70949 | 137.87794 | 21308 ft | 290 kts | 163° |
| 2026-05-06 16:44 | -33.72828 | 137.88683 | 21309 ft | 290 kts | 163° |
| 2026-05-06 16:44 | -33.74707 | 137.89572 | 21306 ft | 291 kts | 163° |
| 2026-05-06 16:44 | -33.76585 | 137.90463 | 21306 ft | 290 kts | 163° |
| 2026-05-06 16:45 | -33.78464 | 137.91353 | 21305 ft | 290 kts | 163° |
| 2026-05-06 16:45 | -33.80341 | 137.92243 | 21305 ft | 290 kts | 163° |
| 2026-05-06 16:45 | -33.82216 | 137.93133 | 21305 ft | 290 kts | 163° |
| 2026-05-06 16:45 | -33.84091 | 137.94023 | 21305 ft | 290 kts | 163° |
| 2026-05-06 16:46 | -33.85963 | 137.94912 | 21300 ft | 290 kts | 163° |
| 2026-05-06 16:46 | -33.87838 | 137.95802 | 21297 ft | 289 kts | 163° |
| 2026-05-06 16:46 | -33.89709 | 137.96692 | 21297 ft | 289 kts | 163° |
| 2026-05-06 16:46 | -33.91581 | 137.97582 | 21294 ft | 289 kts | 163° |
| 2026-05-06 16:47 | -33.93452 | 137.98473 | 21296 ft | 289 kts | 163° |
| 2026-05-06 16:47 | -33.95321 | 137.99362 | 21296 ft | 289 kts | 163° |
| 2026-05-06 16:47 | -33.97193 | 138.00254 | 21248 ft | 290 kts | 163° |
| 2026-05-06 16:47 | -33.99088 | 138.01154 | 20933 ft | 294 kts | 163° |
| 2026-05-06 16:48 | -34.00982 | 138.02059 | 20555 ft | 292 kts | 163° |
| 2026-05-06 16:48 | -34.02866 | 138.02959 | 20171 ft | 290 kts | 163° |
| 2026-05-06 16:48 | -34.04736 | 138.03851 | 19790 ft | 289 kts | 163° |
| 2026-05-06 16:48 | -34.06598 | 138.04739 | 19411 ft | 288 kts | 163° |
| 2026-05-06 16:49 | -34.08465 | 138.05630 | 19028 ft | 290 kts | 163° |
| 2026-05-06 16:49 | -34.10343 | 138.06527 | 18646 ft | 290 kts | 163° |
| 2026-05-06 16:49 | -34.12220 | 138.07425 | 18231 ft | 290 kts | 163° |
| 2026-05-06 16:49 | -34.14098 | 138.08324 | 17841 ft | 290 kts | 163° |
| 2026-05-06 16:50 | -34.15976 | 138.09222 | 17455 ft | 291 kts | 163° |
| 2026-05-06 16:50 | -34.17860 | 138.10124 | 17070 ft | 291 kts | 163° |
| 2026-05-06 16:50 | -34.19744 | 138.11026 | 16685 ft | 292 kts | 163° |
| 2026-05-06 16:50 | -34.21615 | 138.11924 | 16302 ft | 282 kts | 163° |
| 2026-05-06 16:51 | -34.23364 | 138.12770 | 15941 ft | 268 kts | 163° |
| 2026-05-06 16:51 | -34.25081 | 138.13590 | 15590 ft | 263 kts | 163° |
| 2026-05-06 16:51 | -34.26794 | 138.14408 | 15233 ft | 260 kts | 163° |
| 2026-05-06 16:51 | -34.28456 | 138.15205 | 14901 ft | 260 kts | 163° |
| 2026-05-06 16:52 | -34.30137 | 138.16012 | 14562 ft | 260 kts | 163° |
| 2026-05-06 16:52 | -34.31813 | 138.16818 | 14221 ft | 259 kts | 163° |
| 2026-05-06 16:52 | -34.33484 | 138.17621 | 13858 ft | 258 kts | 163° |
| 2026-05-06 16:52 | -34.35149 | 138.18422 | 13508 ft | 257 kts | 163° |
| 2026-05-06 16:53 | -34.36658 | 138.19148 | 13195 ft | 256 kts | 163° |
| 2026-05-06 16:53 | -34.38305 | 138.19941 | 12855 ft | 255 kts | 163° |
| 2026-05-06 16:53 | -34.39946 | 138.20731 | 12524 ft | 254 kts | 163° |
| 2026-05-06 16:53 | -34.41584 | 138.21520 | 12189 ft | 252 kts | 163° |
| 2026-05-06 16:54 | -34.43207 | 138.22302 | 11857 ft | 251 kts | 163° |
| 2026-05-06 16:54 | -34.44835 | 138.23086 | 11294 ft | 251 kts | 163° |
| 2026-05-06 16:54 | -34.46421 | 138.23853 | 10861 ft | 243 kts | 163° |
| 2026-05-06 16:54 | -34.48002 | 138.24615 | 10513 ft | 245 kts | 163° |
| 2026-05-06 16:55 | -34.49584 | 138.25377 | 10182 ft | 244 kts | 163° |
| 2026-05-06 16:55 | -34.51157 | 138.26138 | 9836 ft | 243 kts | 163° |
| 2026-05-06 16:55 | -34.52719 | 138.26893 | 9512 ft | 241 kts | 163° |
| 2026-05-06 16:55 | -34.54272 | 138.27643 | 9191 ft | 239 kts | 163° |
| 2026-05-06 16:56 | -34.55814 | 138.28389 | 8878 ft | 238 kts | 163° |
| 2026-05-06 16:56 | -34.57349 | 138.29131 | 8560 ft | 237 kts | 163° |
| 2026-05-06 16:56 | -34.58876 | 138.29869 | 8252 ft | 235 kts | 163° |
| 2026-05-06 16:56 | -34.60393 | 138.30604 | 7942 ft | 234 kts | 163° |
| 2026-05-06 16:57 | -34.61904 | 138.31335 | 7630 ft | 233 kts | 163° |
| 2026-05-06 16:57 | -34.63406 | 138.32064 | 7324 ft | 232 kts | 163° |
| 2026-05-06 16:57 | -34.64904 | 138.32789 | 7018 ft | 231 kts | 162° |
| 2026-05-06 16:57 | -34.66397 | 138.33514 | 6710 ft | 230 kts | 163° |
| 2026-05-06 16:58 | -34.67878 | 138.34232 | 6393 ft | 229 kts | 162° |
| 2026-05-06 16:58 | -34.69351 | 138.34946 | 6087 ft | 227 kts | 163° |
| 2026-05-06 16:58 | -34.70820 | 138.35659 | 5786 ft | 227 kts | 163° |
| 2026-05-06 16:58 | -34.72279 | 138.36368 | 5480 ft | 226 kts | 163° |
| 2026-05-06 16:59 | -34.73729 | 138.37072 | 5189 ft | 222 kts | 163° |
| 2026-05-06 16:59 | -34.75086 | 138.37736 | 4895 ft | 205 kts | 163° |
| 2026-05-06 16:59 | -34.76349 | 138.38351 | 4630 ft | 182 kts | 165° |
| 2026-05-06 16:59 | -34.77501 | 138.38641 | 4402 ft | 161 kts | 183° |
| 2026-05-06 17:00 | -34.78553 | 138.38544 | 4202 ft | 150 kts | 197° |
| 2026-05-06 17:00 | -34.79551 | 138.38240 | 4005 ft | 147 kts | 198° |
| 2026-05-06 17:00 | -34.80543 | 138.37953 | 3801 ft | 145 kts | 199° |
| 2026-05-06 17:00 | -34.81517 | 138.37668 | 3610 ft | 144 kts | 199° |
| 2026-05-06 17:01 | -34.82444 | 138.37401 | 3418 ft | 126 kts | 200° |
| 2026-05-06 17:01 | -34.83243 | 138.37168 | 3245 ft | 110 kts | 201° |
| 2026-05-06 17:01 | -34.83959 | 138.36957 | 3104 ft | 103 kts | 201° |
| 2026-05-06 17:01 | -34.84667 | 138.36860 | 2969 ft | 104 kts | 185° |
| 2026-05-06 17:02 | -34.85388 | 138.37059 | 2842 ft | 110 kts | 167° |
| 2026-05-06 17:02 | -34.86059 | 138.37575 | 2704 ft | 118 kts | 146° |
| 2026-05-06 17:02 | -34.86576 | 138.38388 | 2547 ft | 124 kts | 129° |
| 2026-05-06 17:02 | -34.87046 | 138.39254 | 2396 ft | 120 kts | 132° |
| 2026-05-06 17:03 | -34.87488 | 138.40059 | 2203 ft | 111 kts | 132° |
| 2026-05-06 17:03 | -34.87915 | 138.40838 | 2060 ft | 112 kts | 131° |
| 2026-05-06 17:03 | -34.88354 | 138.41637 | 1899 ft | 114 kts | 132° |
| 2026-05-06 17:03 | -34.88776 | 138.42405 | 1754 ft | 108 kts | 131° |
| 2026-05-06 17:04 | -34.89195 | 138.43173 | 1613 ft | 108 kts | 131° |
| 2026-05-06 17:04 | -34.89607 | 138.43928 | 1491 ft | 106 kts | 130° |
| 2026-05-06 17:04 | -34.90015 | 138.44667 | 1333 ft | 102 kts | 129° |
| 2026-05-06 17:04 | -34.90389 | 138.45362 | 1189 ft | 95 kts | 129° |
| 2026-05-06 17:05 | -34.90753 | 138.46033 | 1071 ft | 96 kts | 129° |
| 2026-05-06 17:05 | -34.91130 | 138.46724 | 952 ft | 99 kts | 129° |
| 2026-05-06 17:05 | -34.91523 | 138.47441 | 823 ft | 105 kts | 132° |
| 2026-05-06 17:05 | -34.91939 | 138.48196 | 677 ft | 109 kts | 128° |
| 2026-05-06 17:06 | -34.92349 | 138.48945 | 531 ft | 106 kts | 130° |
| 2026-05-06 17:06 | -34.92764 | 138.49666 | 414 ft | 101 kts | 135° |
| 2026-05-06 17:06 | -34.93225 | 138.50281 | 334 ft | 96 kts | 130° |
| 2026-05-06 17:06 | -34.93518 | 138.51052 | 298 ft | 106 kts | 117° |
| 2026-05-06 17:07 | -34.93916 | 138.51849 | 174 ft | 113 kts | 127° |
| 2026-05-06 17:07 | -34.94342 | 138.52621 | 29 ft | 105 kts | 130° |
| 2026-05-06 17:07 | -34.94709 | 138.53275 | 15 ft | 78 kts | 121° |
| 2026-05-06 17:07 | -34.94889 | 138.53603 | 20 ft | 30 kts | 124° |
| 2026-05-06 17:08 | -34.94873 | 138.53738 | 20 ft | 19 kts | 22° |
| 2026-05-06 17:08 | -34.94718 | 138.53735 | 14 ft | 27 kts | 322° |
| 2026-05-06 17:08 | -34.94631 | 138.53610 | 12 ft | 16 kts | 324° |
| 2026-05-06 17:08 | -34.94554 | 138.53489 | 12 ft | 23 kts | 313° |
| 2026-05-06 17:09 | -34.94499 | 138.53351 | 13 ft | 15 kts | 244° |
| 2026-05-06 17:09 | -34.94504 | 138.53208 | 16 ft | 20 kts | 303° |
| 2026-05-06 17:09 | -34.94410 | 138.53031 | 18 ft | 29 kts | 304° |
| 2026-05-06 17:09 | -34.94286 | 138.52856 | 19 ft | 13 kts | 314° |
| 2026-05-06 17:10 | -34.94273 | 138.52836 | 17 ft | 8 kts | 305° |
| 2026-05-06 17:10 | -34.94233 | 138.52752 | 17 ft | 10 kts | 292° |
| 2026-05-06 17:10 | -34.94223 | 138.52720 | 17 ft | 7 kts | 289° |
| 2026-05-06 17:10 | -34.94201 | 138.52627 | 15 ft | 15 kts | 284° |
| 2026-05-06 17:11 | -34.94182 | 138.52491 | 20 ft | 18 kts | 274° |